createdAt,value
2022-09-07T00:00:20.672Z,99.90
2022-09-07T00:05:46.603Z,99.90
2022-09-07T00:10:57.559Z,99.90
2022-09-07T00:16:05.963Z,99.90
2022-09-07T00:21:10.742Z,99.90
2022-09-07T00:26:15.891Z,99.90
2022-09-07T00:31:24.033Z,99.90
2022-09-07T00:36:26.844Z,99.90
2022-09-07T00:41:29.507Z,99.90
2022-09-07T00:46:32.329Z,99.90
2022-09-07T00:51:44.016Z,99.90
2022-09-07T00:56:48.987Z,99.90
2022-09-07T01:01:54.893Z,99.90
2022-09-07T01:06:57.792Z,99.90
2022-09-07T01:12:02.212Z,99.90
2022-09-07T01:17:14.899Z,99.90
2022-09-07T01:22:26.751Z,99.90
2022-09-07T01:27:50.611Z,99.90
2022-09-07T01:33:07.984Z,99.90
2022-09-07T01:38:37.031Z,99.90
2022-09-07T01:43:48.603Z,99.90
2022-09-07T01:48:54.498Z,99.90
2022-09-07T01:54:01.237Z,99.90
2022-09-07T01:59:08.877Z,99.90
2022-09-07T02:04:31.651Z,99.90
2022-09-07T02:09:51.667Z,99.90
2022-09-07T02:15:02.427Z,99.90
2022-09-07T02:20:15.423Z,99.90
2022-09-07T02:25:24.223Z,99.90
2022-09-07T02:30:26.811Z,99.90
2022-09-07T02:35:29.566Z,99.90
2022-09-07T02:40:32.693Z,99.90
2022-09-07T02:46:02.026Z,99.90
2022-09-07T02:51:10.122Z,99.90
2022-09-07T02:56:15.348Z,99.90
2022-09-07T03:01:39.178Z,99.90
2022-09-07T03:06:50.134Z,99.90
2022-09-07T03:11:52.934Z,99.90
2022-09-07T03:16:56.707Z,99.90
2022-09-07T03:21:59.222Z,99.90
2022-09-07T03:27:02.131Z,99.90
2022-09-07T03:32:05.037Z,99.90
2022-09-07T03:37:07.577Z,99.90
2022-09-07T03:42:10.085Z,99.90
2022-09-07T03:47:13.200Z,99.90
2022-09-07T03:52:15.838Z,99.90
2022-09-07T03:57:20.338Z,99.90
2022-09-07T04:02:23.000Z,99.90
2022-09-07T04:07:25.652Z,99.90
2022-09-07T04:12:28.535Z,99.90
2022-09-07T04:17:31.001Z,99.90
2022-09-07T04:22:33.992Z,99.90
2022-09-07T04:27:36.649Z,99.90
2022-09-07T04:32:39.172Z,99.90
2022-09-07T04:37:41.687Z,99.90
2022-09-07T04:42:44.444Z,99.90
2022-09-07T04:47:48.526Z,99.90
2022-09-07T04:52:50.979Z,99.90
2022-09-07T04:57:53.576Z,99.90
2022-09-07T05:02:56.126Z,99.90
2022-09-07T05:07:58.624Z,99.90
2022-09-07T05:13:01.296Z,99.90
2022-09-07T05:18:05.612Z,99.90
2022-09-07T05:23:08.781Z,99.90
2022-09-07T05:28:15.890Z,99.90
2022-09-07T05:33:21.355Z,99.90
2022-09-07T05:38:25.781Z,99.90
2022-09-07T05:43:29.917Z,99.90
2022-09-07T05:48:32.422Z,99.90
2022-09-07T05:53:40.346Z,99.90
2022-09-07T05:58:42.779Z,99.90
2022-09-07T06:03:45.773Z,99.90
2022-09-07T06:08:53.059Z,99.90
2022-09-07T06:13:55.902Z,99.90
2022-09-07T06:18:58.436Z,99.90
2022-09-07T06:24:00.870Z,99.90
2022-09-07T06:29:03.933Z,99.90
2022-09-07T06:34:06.697Z,99.90
2022-09-07T06:39:09.649Z,98.50
2022-09-07T06:44:12.619Z,97.80
2022-09-07T06:49:15.147Z,97.10
2022-09-07T06:59:40.516Z,95.30
2022-09-07T07:04:43.034Z,95.50
2022-09-07T07:09:45.473Z,96.60
2022-09-07T07:14:48.012Z,95.60
2022-09-07T07:19:50.521Z,95.90
2022-09-07T07:24:53.112Z,94.00
2022-09-07T07:29:55.572Z,92.70
2022-09-07T07:34:58.054Z,91.90
2022-09-07T07:40:17.550Z,91.90
2022-09-07T07:50:44.815Z,91.10
2022-09-07T07:55:47.768Z,90.90
2022-09-07T08:00:54.769Z,90.70
2022-09-07T08:06:08.178Z,90.60
2022-09-07T08:11:19.160Z,91.20
2022-09-07T08:16:21.779Z,90.60
2022-09-07T08:21:25.296Z,87.40
2022-09-07T08:26:28.340Z,86.80
2022-09-07T08:31:33.845Z,86.60
2022-09-07T08:36:36.383Z,85.70
2022-09-07T08:41:57.274Z,90.40
2022-09-07T08:47:25.761Z,85.60
2022-09-07T08:52:38.385Z,86.50
2022-09-07T08:57:47.671Z,88.50
2022-09-07T09:08:35.589Z,84.50
2022-09-07T09:14:01.588Z,87.20
2022-09-07T09:19:24.113Z,84.40
2022-09-07T09:24:36.228Z,84.70
2022-09-07T09:29:38.738Z,84.60
2022-09-07T09:34:58.041Z,84.90
2022-09-07T09:40:03.011Z,85.90
2022-09-07T09:45:16.424Z,85.60
2022-09-07T09:55:54.767Z,80.00
2022-09-07T10:01:22.390Z,82.10
2022-09-07T10:06:25.747Z,81.30
2022-09-07T10:17:18.653Z,86.30
2022-09-07T10:22:36.455Z,86.70
2022-09-07T10:27:40.789Z,85.80
2022-09-07T10:32:58.651Z,84.80
2022-09-07T10:38:17.703Z,84.40
2022-09-07T10:43:50.251Z,84.90
2022-09-07T10:49:04.751Z,85.60
2022-09-07T10:54:30.517Z,83.30
2022-09-07T11:00:10.533Z,82.40
2022-09-07T11:05:48.323Z,80.10
2022-09-07T11:11:00.451Z,81.60
2022-09-07T11:16:50.600Z,81.20
2022-09-07T11:27:24.487Z,80.80
2022-09-07T11:32:46.202Z,83.10
2022-09-07T11:37:59.604Z,79.10
2022-09-07T11:43:28.387Z,77.50
2022-09-07T11:49:04.761Z,78.10
2022-09-07T11:54:20.653Z,76.70
2022-09-07T11:59:36.622Z,77.60
2022-09-07T12:05:04.580Z,74.90
2022-09-07T12:10:26.244Z,75.40
2022-09-07T12:15:45.493Z,77.30
2022-09-07T12:20:49.491Z,74.70
2022-09-07T12:25:52.602Z,74.00
2022-09-07T12:31:00.260Z,76.10
2022-09-07T12:36:28.774Z,72.50
2022-09-07T12:41:43.421Z,72.00
2022-09-07T12:46:51.805Z,76.90
2022-09-07T12:52:34.626Z,76.50
2022-09-07T12:57:36.960Z,74.60
2022-09-07T13:03:04.257Z,76.00
2022-09-07T13:08:25.670Z,71.00
2022-09-07T13:18:52.498Z,74.40
2022-09-07T13:29:40.933Z,72.80
2022-09-07T13:34:48.232Z,77.30
2022-09-07T13:39:54.019Z,73.10
2022-09-07T13:44:58.875Z,73.80
2022-09-07T13:50:24.372Z,71.50
2022-09-07T13:55:41.953Z,70.40
2022-09-07T14:01:13.749Z,72.00
2022-09-07T14:06:22.435Z,73.40
2022-09-07T14:11:35.982Z,72.50
2022-09-07T14:16:38.949Z,70.40
2022-09-07T14:21:41.490Z,70.10
2022-09-07T14:26:50.841Z,75.70
2022-09-07T14:31:54.401Z,74.50
2022-09-07T14:37:01.478Z,73.50
2022-09-07T14:42:05.102Z,71.80
2022-09-07T14:47:21.365Z,74.30
2022-09-07T14:52:35.775Z,74.90
2022-09-07T14:57:40.623Z,73.20
2022-09-07T15:02:43.729Z,75.40
2022-09-07T15:07:51.846Z,70.60
2022-09-07T15:12:58.722Z,71.80
2022-09-07T15:18:25.714Z,74.10
2022-09-07T15:23:28.265Z,74.90
2022-09-07T15:33:55.701Z,77.60
2022-09-07T15:39:00.123Z,77.00
2022-09-07T15:44:03.913Z,75.20
2022-09-07T15:49:07.662Z,74.20
2022-09-07T15:54:14.060Z,73.90
2022-09-07T15:59:16.981Z,74.80
2022-09-07T16:04:19.842Z,76.80
2022-09-07T16:09:22.876Z,76.10
2022-09-07T16:14:25.459Z,75.80
2022-09-07T16:19:27.902Z,78.10
2022-09-07T16:24:30.755Z,78.90
2022-09-07T16:29:33.273Z,79.20
2022-09-07T16:34:35.675Z,80.10
2022-09-07T16:39:38.072Z,81.30
2022-09-07T16:44:40.586Z,82.40
2022-09-07T16:49:43.041Z,82.90
2022-09-07T16:54:45.982Z,83.00
2022-09-07T16:59:48.394Z,83.60
2022-09-07T17:04:51.854Z,84.90
2022-09-07T17:09:55.466Z,86.20
2022-09-07T17:14:57.801Z,86.90
2022-09-07T17:20:00.951Z,87.70
2022-09-07T17:25:03.435Z,88.80
2022-09-07T17:30:06.662Z,89.20
2022-09-07T17:35:09.624Z,90.00
2022-09-07T17:40:12.626Z,90.30
2022-09-07T17:45:15.229Z,90.40
2022-09-07T17:50:18.294Z,90.90
2022-09-07T17:55:22.369Z,91.80
2022-09-07T18:00:24.782Z,92.30
2022-09-07T18:05:27.278Z,92.20
2022-09-07T18:11:45.144Z,92.60
2022-09-07T18:15:56.144Z,93.00
2022-09-07T18:20:58.664Z,93.40
2022-09-07T18:26:01.086Z,93.60
2022-09-07T18:31:06.265Z,93.80
2022-09-07T18:36:10.139Z,94.00
2022-09-07T18:41:14.846Z,94.10
2022-09-07T18:46:20.073Z,94.60
2022-09-07T18:51:22.647Z,94.80
2022-09-07T18:56:25.179Z,94.80
2022-09-07T19:01:28.961Z,95.40
2022-09-07T19:06:31.608Z,95.20
2022-09-07T19:11:34.112Z,95.40
2022-09-07T19:16:36.983Z,95.60
2022-09-07T19:21:42.260Z,95.40
2022-09-07T19:26:47.075Z,95.50
2022-09-07T19:32:13.008Z,95.50
2022-09-07T19:37:15.666Z,95.50
2022-09-07T19:42:18.031Z,95.50
2022-09-07T19:47:21.289Z,95.60
2022-09-07T19:52:23.697Z,95.70
2022-09-07T19:57:26.442Z,95.70
2022-09-07T20:02:28.805Z,96.00
2022-09-07T20:07:31.235Z,95.90
2022-09-07T20:12:33.739Z,96.30
2022-09-07T20:17:37.572Z,96.40
2022-09-07T20:22:40.216Z,95.60
2022-09-07T20:27:42.667Z,95.10
2022-09-07T20:32:45.141Z,94.80
2022-09-07T20:37:48.314Z,94.90
2022-09-07T20:42:50.808Z,95.30
2022-09-07T20:47:53.522Z,95.00
2022-09-07T20:52:56.017Z,94.90
2022-09-07T20:57:58.574Z,95.00
2022-09-07T21:03:01.115Z,95.00
2022-09-07T21:08:03.777Z,94.70
2022-09-07T21:13:06.490Z,94.50
2022-09-07T21:18:14.870Z,94.30
2022-09-07T21:23:17.230Z,94.20
2022-09-07T21:28:19.716Z,94.80
2022-09-07T21:33:22.126Z,94.90
2022-09-07T21:38:24.570Z,95.30
2022-09-07T21:43:27.057Z,95.00
2022-09-07T21:48:30.829Z,95.10
2022-09-07T21:53:33.999Z,95.20
2022-09-07T21:58:36.542Z,95.10
2022-09-07T22:03:43.097Z,95.40
2022-09-07T22:08:45.419Z,95.50
2022-09-07T22:13:48.182Z,95.50
2022-09-07T22:18:50.813Z,95.60
2022-09-07T22:23:56.668Z,95.50
2022-09-07T22:28:59.587Z,95.50
2022-09-07T22:34:04.612Z,95.60
2022-09-07T22:39:11.720Z,96.10
2022-09-07T22:44:16.628Z,96.30
2022-09-07T22:49:19.366Z,96.30
2022-09-07T22:54:21.753Z,96.30
2022-09-07T22:59:24.140Z,96.50
2022-09-07T23:04:31.059Z,96.00
2022-09-07T23:09:34.204Z,96.00
2022-09-07T23:14:36.842Z,95.40
2022-09-07T23:19:39.245Z,95.20
2022-09-07T23:24:41.788Z,95.50
2022-09-07T23:29:44.348Z,95.80
2022-09-07T23:34:47.397Z,95.90
2022-09-07T23:39:49.851Z,96.40
2022-09-07T23:44:52.642Z,97.10
2022-09-07T23:49:54.983Z,96.60
2022-09-07T23:55:00.116Z,96.50
